Terminal Aerodrome Forecast
Issued by NWS Shreveport, LA

Home | Current Version | Previous Version | Text Only | Print | Product List | Glossary On
Versions: 1 2 3 4 5 6 7 8 9 10 11 12 13 14 15 16 17 18 19 20 21
839
FTUS44 KSHV 222327
TAFLFK
TAF
KLFK 222327Z 2300/2324 VRB03KT P6SM SKC
      TEMPO 2305/2308 5SM BR
     FM230800 00000KT 5SM BR SKC
      TEMPO 2308/2312 1/4SM FG VV001
     FM231200 00000KT 1/4SM FG VV001
      TEMPO 2314/2316 P6SM NSW OVC005
     FM231600 11005KT P6SM SCT020 SCT035
     FM231800 11005KT P6SM SCT040=

USA.gov is the U.S. government's official web portal to all federal, state and local government web resources and services.